SANTA FE DAM CA US current weather conditions

sailwx.info

Wind from 038 at 1 knots gusting 7

Air temperature 14.4° C
Dewpoint 11.2° C

Last reported at 2014-Oct-22 13:57 UTC.
Time now 2014-Oct-22 15:25 UTC

Location: N 34°08' W 117°57'.
View on Google Maps.

See reports from other nearby stations

  
Tides and Currents Weather Stations Pressure Air Temp Water Temp Dewpoint Dewpoint Depression Visibility Wind Speed Wind Dir Waves Ship Positions
date/time (UTC)wind fromknots sea level pressurealtimeterstation pressurevisibilityair tempwater tempwave heightnotes
2014-Oct-22 13:57 038 1 gusting 7 14.4
2014-Oct-22 12:57 040 3 gusting 8 16.1
2014-Oct-22 11:57 120 1 gusting 6 15.0
2014-Oct-22 10:57 065 1 gusting 6 15.6
2014-Oct-22 09:57 013 2 gusting 6 15.0
2014-Oct-22 08:57 043 1 gusting 2 13.3
2014-Oct-22 07:57 028 0 gusting 2 13.3
2014-Oct-22 06:57 090 0 gusting 3 15.6
2014-Oct-22 05:57 010 1 gusting 4 15.6
2014-Oct-22 04:57 004 0 gusting 3 15.6
2014-Oct-22 03:57 268 0 gusting 2 16.7
2014-Oct-22 02:57 189 2 gusting 8 18.9
2014-Oct-22 01:57 225 3 gusting 6 20.0
2014-Oct-22 00:57 224 4 gusting 11 23.3
2014-Oct-21 23:57 238 6 gusting 13 25.6
2014-Oct-21 22:57 227 7 gusting 13 28.3
2014-Oct-21 21:57 243 4 gusting 10 27.8
2014-Oct-21 20:57 258 4 gusting 11 26.7
2014-Oct-21 19:57 216 5 gusting 11 25.6
2014-Oct-21 18:57 231 3 gusting 9 25.0
2014-Oct-21 17:57 349 2 gusting 7 23.9
2014-Oct-21 16:57 131 4 gusting 8 20.6
2014-Oct-21 15:57 300 1 gusting 3 17.8
2014-Oct-21 14:57 059 0 gusting 5 15.6
2014-Oct-21 13:57 332 1 gusting 3 13.3
2014-Oct-21 12:57 018 0 gusting 6 14.4
2014-Oct-21 11:57 118 0 gusting 3 15.6
2014-Oct-21 10:57 320 2 gusting 37 16.1
2014-Oct-21 09:57 167 37 gusting 38 15.0
2014-Oct-21 08:57 038 0 gusting 4 16.1
2014-Oct-21 07:57 043 1 gusting 4 16.1
2014-Oct-21 06:57 026 1 gusting 3 15.0
2014-Oct-21 05:57 354 0 gusting 4 16.7
2014-Oct-21 04:57 243 2 gusting 3 16.7
2014-Oct-21 03:57 192 1 gusting 4 18.3
2014-Oct-21 02:57 221 3 gusting 6 19.4
2014-Oct-21 01:57 232 4 gusting 10 21.1
2014-Oct-21 00:57 229 5 gusting 11 23.9
2014-Oct-20 23:57 222 6 gusting 14 27.2
2014-Oct-20 22:57 229 6 gusting 12 27.8
2014-Oct-20 21:57 237 5 gusting 11 27.8
2014-Oct-20 20:57 262 5 gusting 9 27.2
2014-Oct-20 19:57 241 3 gusting 10 26.7
2014-Oct-20 18:57 312 1 gusting 7 25.6
2014-Oct-20 17:57 147 3 gusting 6 21.1
2014-Oct-20 16:57 163 0 gusting 4 20.0
2014-Oct-20 15:57 090 1 gusting 5 18.9